Flight Track Log - Related Links

Times and Time Zones

All times are in EDT time to prevent confusion due to time zone crossing. See the N7265Y flight status page for this flight to view local times or setup timezone preferences in your user account.


Time Position Orientation Groundspeed Altitude Reporting Facility
EDT Latitude Longitude Course Direction KTS MPH feet Rate Location/Type
Wed 01:57:09 PM 30.6564 -83.7233 110° East 83 96 5,400  Level Jacksonville Center
Wed 01:58:10 PM 30.6481 -83.6967 123° Southeast 85 98 5,700 248 Climbing Jacksonville Center
Wed 01:59:10 PM 30.6358 -83.6747 138° Southeast 91 105 5,900 198 Climbing Jacksonville Center
Wed 02:00:11 PM 30.6150 -83.6531 151° Southeast 100 115 6,100 246 Climbing Jacksonville Center
Wed 02:01:12 PM 30.5922 -83.6383 146° Southeast 91 105 6,400 347 Climbing Jacksonville Center
Wed 02:02:12 PM 30.5733 -83.6236 138° Southeast 84 97 6,800 347 Climbing Jacksonville Center
Wed 02:03:13 PM 30.5547 -83.6042 135° Southeast 84 97 7,100 255 Climbing Jacksonville Center
Wed 02:03:46 PM 30.5486 -83.5969 135° Southeast 131 151 7,200 258 Climbing Jacksonville Center
Wed 02:04:46 PM 30.5319 -83.5775 131° Southeast 107 123 7,500 200 Climbing Jacksonville Center
Wed 02:05:46 PM 30.5153 -83.5556 138° Southeast 89 102 7,600 100 Climbing Jacksonville Center
Wed 02:06:46 PM 30.4967 -83.5364 135° Southeast 89 102 7,700 100 Climbing Jacksonville Center
Wed 02:07:46 PM 30.4781 -83.5144 132° Southeast 89 102 7,800  Climbing Jacksonville Center
Wed 02:08:46 PM 30.4592 -83.4903 137° Southeast 95 109 7,700 -50 Descending Jacksonville Center
Wed 02:09:46 PM 30.4386 -83.4683 135° Southeast 95 109 7,700  Level Jacksonville Center
Wed 02:10:46 PM 30.4197 -83.4467 135° Southeast 95 109 7,700  Level Jacksonville Center
Wed 02:11:46 PM 30.4011 -83.4250 143° Southeast 95 109 7,700 -100 Level Jacksonville Center
Wed 02:12:46 PM 30.3761 -83.4031 143° Southeast 95 109 7,500 -100 Descending Jacksonville Center
Wed 02:13:46 PM 30.3511 -83.3814 144° Southeast 105 121 7,500 50 Level Jacksonville Center
Wed 02:14:46 PM 30.3283 -83.3619 141° Southeast 110 127 7,600 50 Climbing Jacksonville Center
Wed 02:15:46 PM 30.3053 -83.3400 141° Southeast 105 121 7,600 50 Level Jacksonville Center
Wed 02:16:46 PM 30.2847 -83.3208 144° Southeast 105 121 7,700  Climbing Jacksonville Center
Wed 02:17:46 PM 30.2617 -83.3014 132° Southeast 105 121 7,600  Descending Jacksonville Center
Wed 02:18:46 PM 30.2431 -83.2772 148° Southeast 105 121 7,700 50 Climbing Jacksonville Center
Wed 02:19:46 PM 30.2200 -83.2603 126° Southeast 105 121 7,700  Level Jacksonville Center
Wed 02:20:46 PM 30.2033 -83.2339 129° Southeast 105 121 7,700  Level Jacksonville Center
Wed 02:21:46 PM 30.1847 -83.2075 132° Southeast 99 114 7,700 50 Level Jacksonville Center
Wed 02:22:46 PM 30.1681 -83.1858 141° Southeast 99 114 7,800 50 Climbing Jacksonville Center
Wed 02:23:46 PM 30.1450 -83.1639 138° Southeast 99 114 7,800 -50 Level Jacksonville Center
Wed 02:24:46 PM 30.1242 -83.1422 141° Southeast 99 114 7,700  Descending Jacksonville Center
Wed 02:25:46 PM 30.1014 -83.1206 144° Southeast 105 121 7,800 100 Climbing Jacksonville Center
Wed 02:26:46 PM 30.0783 -83.1014 144° Southeast 105 121 7,900  Climbing Jacksonville Center
Wed 02:27:46 PM 30.0556 -83.0822 150° Southeast 105 121 7,800 -100 Descending Jacksonville Center
Wed 02:28:46 PM 30.0306 -83.0653 157° South 110 127 7,700  Descending Jacksonville Center
Wed 02:29:46 PM 30.0014 -83.0508 167° South 110 127 7,800 100 Climbing Jacksonville Center
Wed 02:30:46 PM 29.9742 -83.0436 176° South 110 127 7,900  Climbing Jacksonville Center
Wed 02:31:46 PM 29.9450 -83.0411 172° South 110 127 7,800 50 Descending Jacksonville Center
Wed 02:32:46 PM 29.9156 -83.0364 180° South 110 127 8,000 50 Climbing Jacksonville Center
Wed 02:33:46 PM 29.8864 -83.0364 168° South 105 121 7,900 -100 Descending Jacksonville Center
Wed 02:34:46 PM 29.8572 -83.0292 146° Southeast 105 121 7,800 -50 Descending Jacksonville Center
Wed 02:35:46 PM 29.8322 -83.0100 164° South 105 121 7,800 -100 Level Jacksonville Center
Wed 02:36:46 PM 29.8031 -83.0003 165° South 110 127 7,600 -150 Descending Jacksonville Center
Wed 02:37:46 PM 29.7717 -82.9906 160° South 110 127 7,500  Descending Jacksonville Center
Wed 02:38:46 PM 29.7425 -82.9786 165° South 110 127 7,600 50 Climbing Jacksonville Center
Wed 02:39:46 PM 29.7111 -82.9692 160° South 110 127 7,600 50 Level Jacksonville Center
Wed 02:40:46 PM 29.6819 -82.9572 153° Southeast 105 121 7,700 50 Climbing Jacksonville Center
Wed 02:41:46 PM 29.6569 -82.9428 141° Southeast 105 121 7,700 100 Level Jacksonville Center
Wed 02:42:46 PM 29.6361 -82.9236 147° Southeast 104 120 7,900 100 Climbing Jacksonville Center
Wed 02:43:46 PM 29.6108 -82.9044 144° Southeast 97 112 7,900 57 Level Jacksonville Center
Wed 02:44:32 PM 29.5942 -82.8903 141° Southeast 99 114 8,000 79 Climbing Jacksonville Center
Wed 02:45:02 PM 29.5839 -82.8806 127° Southeast 96 110 8,000 162 Level Jacksonville Center
Wed 02:45:46 PM 29.5714 -82.8614 135° Southeast 95 109 8,200 115 Climbing Jacksonville Center
Wed 02:46:46 PM 29.5547 -82.8425 147° Southeast 89 102 8,200  Level Jacksonville Center
Wed 02:47:16 PM 29.5419 -82.8328 116° Southeast 96 110 8,200 100 Level Jacksonville Center
Wed 02:47:46 PM 29.5358 -82.8186 153° Southeast 94 108 8,300 197 Climbing Jacksonville Center
Wed 02:48:17 PM 29.5233 -82.8114 139° Southeast 98 113 8,400 65 Climbing Jacksonville Center
Wed 02:49:18 PM 29.5022 -82.7900 135° Southeast 97 112 8,400 52 Level Jacksonville Center
Wed 02:50:13 PM 29.4856 -82.7708 140° Southeast 96 110 8,500 68 Climbing Jacksonville Center
Wed 02:50:46 PM 29.4731 -82.7589 141° Southeast 99 114 8,500  Level Jacksonville Center
Wed 02:51:20 PM 29.4628 -82.7494 144° Southeast 100 115 8,500 63 Level Jacksonville Center
Wed 02:52:21 PM 29.4375 -82.7281 154° Southeast 100 115 8,600  Climbing Jacksonville Center
Wed 02:53:22 PM 29.4125 -82.7139 164° South 102 117 8,500  Descending Jacksonville Center
Wed 02:54:23 PM 29.3833 -82.7042 162° South 103 119 8,600 49 Climbing Jacksonville Center
Wed 02:55:24 PM 29.3583 -82.6947 166° South 104 120 8,600 -94 Level Jacksonville Center
Wed 02:56:31 PM 29.3247 -82.6853 173° South 109 125 8,400 -94 Descending Jacksonville Center
Wed 02:57:32 PM 29.2914 -82.6806 181° South 109 125 8,400 49 Level Jacksonville Center
Wed 02:58:33 PM 29.2642 -82.6808 184° South 101 116 8,500 98 Climbing Jacksonville Center
Wed 02:59:34 PM 29.2350 -82.6831 184° South 105 121 8,600  Climbing Jacksonville Center
Wed 03:00:35 PM 29.2058 -82.6856 189° South 106 122 8,500  Descending Jacksonville Center
Wed 03:01:36 PM 29.1767 -82.6906 188° South 102 117 8,600 148 Climbing Jacksonville Center
Wed 03:02:37 PM 29.1475 -82.6953 180° South 102 117 8,800 103 Climbing Jacksonville Center
Wed 03:03:32 PM 29.1203 -82.6953 191° South 106 122 8,800 -155 Level Jacksonville Center
Wed 03:04:33 PM 29.0889 -82.7025 180° South 114 131 8,500 -197 Descending Jacksonville Center
Wed 03:05:34 PM 29.0556 -82.7025 188° South 119 137 8,400 -50 Descending Jacksonville Center
Wed 03:06:34 PM 29.0242 -82.7075 166° South 113 130 8,400 47 Level Jacksonville Center
Wed 03:07:41 PM 28.9908 -82.6978 172° South 102 117 8,500 47 Climbing Jacksonville Center
Wed 03:08:42 PM 28.9636 -82.6933 171° South 105 121 8,500  Level Jacksonville Center
Wed 03:09:43 PM 28.9367 -82.6886 180° South 100 115 8,500 -49 Level Jacksonville Center
Wed 03:10:44 PM 28.9072 -82.6886 171° South 102 117 8,400  Descending Jacksonville Center
Wed 03:11:39 PM 28.8803 -82.6839 153° Southeast 106 122 8,500 109 Climbing Jacksonville Center
Wed 03:19:15 PM 28.6851 -82.5690 183° South  Level FlightAware Approximate
Wed 03:20:15 PM 28.6555 -82.5707 183° South  Level FlightAware Approximate
Wed 03:21:15 PM 28.6260 -82.5723 183° South  Level FlightAware Approximate
Wed 03:22:15 PM 28.5964 -82.5740 183° South  Level FlightAware Approximate
Wed 03:23:15 PM 28.5669 -82.5757 183° South  Level FlightAware Approximate
Wed 03:24:15 PM 28.5373 -82.5773 183° South  Level FlightAware Approximate
Wed 03:25:15 PM 28.5078 -82.5790 183° South  Level FlightAware Approximate
Wed 03:26:15 PM 28.4782 -82.5807 183° South  Level FlightAware Approximate
Wed 03:27:15 PM 28.4487 -82.5823 183° South  Level FlightAware Approximate
Wed 03:28:15 PM 28.4191 -82.5840 183° South  Level FlightAware Approximate
Wed 03:29:15 PM 28.3896 -82.5856 183° South  Level FlightAware Approximate
Wed 03:30:15 PM 28.3600 -82.5873 183° South  Level FlightAware Approximate
Wed 03:31:15 PM 28.3305 -82.5890 183° South  Level FlightAware Approximate
Wed 03:32:15 PM 28.3009 -82.5906 183° South  Level FlightAware Approximate
Wed 03:33:15 PM 28.2714 -82.5923 197° South  Level FlightAware Approximate
Wed 03:34:15 PM 28.2454 -82.6011 182° South  Level FlightAware Approximate
Wed 03:35:15 PM 28.2158 -82.6022 182° South  Level FlightAware Approximate
Wed 03:36:15 PM 28.1862 -82.6034 182° South  Level FlightAware Approximate
Wed 03:37:15 PM 28.1567 -82.6045 182° South  Level FlightAware Approximate
Wed 03:38:15 PM 28.1271 -82.6056 182° South  Level FlightAware Approximate
Wed 03:39:15 PM 28.0975 -82.6067 182° South  Level FlightAware Approximate
Wed 03:40:15 PM 28.0680 -82.6078 182° South  Level FlightAware Approximate
Wed 03:41:15 PM 28.0384 -82.6089 182° South  Level FlightAware Approximate
Wed 03:42:15 PM 28.0088 -82.6101 182° South  Level FlightAware Approximate
Wed 03:43:15 PM 27.9792 -82.6112 182° South  Level FlightAware Approximate
Wed 03:44:15 PM 27.9497 -82.6123 182° South  Level FlightAware Approximate
Wed 03:45:15 PM 27.9201 -82.6134 182° South  Level FlightAware Approximate
Wed 03:46:15 PM 27.8905 -82.6145 184° South  Level FlightAware Approximate
Wed 03:47:15 PM 27.8612 -82.6167 180° South  Level FlightAware Approximate
Wed 03:48:15 PM 27.8316 -82.6167 180° South  Level FlightAware Approximate

Login

Don't have an account? Register now (free) for customized features, flight alerts, and more!